Estación Meteorológica Peña el Pijo (Robertgarden) [ 09/23/17 05:46:34 CEST ]

Fecha Hora Presion(HPa) Temp (°C) Humedad % Rocio (°C) Viento ( m/s) Direccion Lluvia 1Hora(mm) Lluvia 24H(mm) LLuvia Total(mm)
2017-Jul-14 01:01:56 1014.300 21.7 34 5.1         1437.96
2017-Jul-14 02:01:46 1014.400 19.0 40 5.1         1437.96
2017-Jul-14 03:01:24 1013.900 17.7 43 4.9         1437.96
2017-Jul-14 04:01:22 1013.300 19.5 36 3.9         1437.96
2017-Jul-14 05:01:29 1013.200 18.9 35 3.0         1437.96
2017-Jul-14 06:01:27 1013.300 18.4 36 3.0         1437.96
2017-Jul-14 07:01:43 1013.300 18.1 37 3.1         1437.96
2017-Jul-14 08:01:39 1013.500 18.1 42 4.9         1437.96
2017-Jul-14 09:01:55 1013.600 25.3 41 11.1         1437.96
2017-Jul-14 10:09:09 1013.200 - - - - N     1437.96
2017-Jul-14 11:01:56 1013.100 39.3 20 12.2         1437.96
2017-Jul-14 12:01:53 1012.700 40.3 12 4.9         1437.96
2017-Jul-14 13:01:08 1012.600 41.2 11 4.6         1437.96
2017-Jul-14 14:01:39 1013.000 40.1 10 2.8         1437.96
2017-Jul-14 15:01:40 1012.800 40.9 11 4.3 2.5 N     1437.96
2017-Jul-14 16:01:46 1012.500 43.6 11 6.4         1437.96
2017-Jul-14 17:01:36 1012.000 42.3 - -         1437.96
2017-Jul-14 18:01:29 1011.600 41.4 11 4.7         1437.96
2017-Jul-14 19:01:28 1011.400 39.8 10 2.5         1437.96
2017-Jul-14 20:01:40 1011.600 36.6 26 13.8         1437.96
2017-Jul-14 21:01:39 1011.800 30.8 36 13.9         1437.96
2017-Jul-14 22:01:26 1012.500 28.2 48 16.3         1437.96
2017-Jul-14 23:01:36 1013.200 24.9 58 16.0         1437.96

Temperatura Máxima:43°    Temperatura Mínima:
Presión Máxima:1014.400 Hpa    Presión Mínima:1011.400 Hpa


Volver